Terminal Aerodrome Forecast
Issued by NWS

Home | Current Version | Previous Version | Text Only | Print | Product List | Glossary On
Versions: 1 2 3 4 5 6 7 8 9 10 11 12 13 14 15 16 17 18 19 20
000
FTUS43 KJKL 290500
TAFSME
TAF
KSME 290524Z 2906/3006 00000KT 3SM BR SCT100 SCT160
     FM290800 00000KT 1SM BR SCT100
     FM291000 00000KT 1/2SM FG BKN003 BKN100
     FM291300 00000KT 2SM BR SCT100
     FM291500 27004KT P6SM SCT035=

USA.gov is the U.S. government's official web portal to all federal, state and local government web resources and services.